createdAt,value
2019-03-22T00:00:17.650Z,7.38
2019-03-22T00:01:17.821Z,7.33
2019-03-22T00:02:17.996Z,7.23
2019-03-22T00:03:18.167Z,7.31
2019-03-22T00:04:18.340Z,7.21
2019-03-22T00:05:18.513Z,7.28
2019-03-22T00:06:18.686Z,7.20
2019-03-22T00:07:18.865Z,7.24
2019-03-22T00:08:19.029Z,7.24
2019-03-22T00:09:19.202Z,7.31
2019-03-22T00:10:19.389Z,7.18
2019-03-22T00:11:19.547Z,7.25
2019-03-22T00:12:19.724Z,7.13
2019-03-22T00:13:19.904Z,7.11
2019-03-22T00:14:20.076Z,7.07
2019-03-22T00:15:20.244Z,7.03
2019-03-22T00:16:20.418Z,7.02
2019-03-22T00:17:20.650Z,7.02
2019-03-22T00:18:20.767Z,7.11
2019-03-22T00:19:20.942Z,7.06
2019-03-22T00:20:21.111Z,7.07
2019-03-22T00:21:21.294Z,7.05
2019-03-22T00:22:21.450Z,7.07
2019-03-22T00:23:21.620Z,6.97
2019-03-22T00:24:21.795Z,6.93
2019-03-22T00:25:21.982Z,6.93
2019-03-22T00:26:22.148Z,6.93
2019-03-22T00:27:22.312Z,6.97
2019-03-22T00:28:22.488Z,6.87
2019-03-22T00:29:22.664Z,6.99
2019-03-22T00:30:22.827Z,6.97
2019-03-22T00:31:23.010Z,7.03
2019-03-22T00:32:23.175Z,6.70
2019-03-22T00:33:23.359Z,6.67
2019-03-22T00:34:23.516Z,6.69
2019-03-22T00:35:23.694Z,6.67
2019-03-22T00:36:23.869Z,6.74
2019-03-22T00:37:24.043Z,6.77
2019-03-22T00:38:24.211Z,6.75
2019-03-22T00:39:24.387Z,6.78
2019-03-22T00:40:24.565Z,6.75
2019-03-22T00:41:24.731Z,6.81
2019-03-22T00:42:24.903Z,6.78
2019-03-22T00:43:25.074Z,6.82
2019-03-22T00:44:25.250Z,6.89
2019-03-22T00:45:25.417Z,6.85
2019-03-22T00:46:25.588Z,6.92
2019-03-22T00:47:25.767Z,7.02
2019-03-22T00:48:25.940Z,7.02
2019-03-22T00:49:26.118Z,6.97
2019-03-22T00:50:26.300Z,6.92
2019-03-22T00:51:26.476Z,6.93
2019-03-22T00:52:26.628Z,7.00
2019-03-22T00:53:26.802Z,6.97
2019-03-22T00:54:26.973Z,6.92
2019-03-22T00:55:27.147Z,6.97
2019-03-22T00:56:27.329Z,6.89
2019-03-22T00:57:28.626Z,6.89
2019-03-22T00:58:27.650Z,6.97
2019-03-22T00:59:27.830Z,7.06
2019-03-22T01:00:27.999Z,6.89
2019-03-22T01:01:28.172Z,6.99
2019-03-22T01:02:28.342Z,6.84
2019-03-22T01:03:28.518Z,6.92
2019-03-22T01:04:28.685Z,6.99
2019-03-22T01:06:29.025Z,6.89
2019-03-22T01:07:29.195Z,6.79
2019-03-22T01:08:29.378Z,6.85
2019-03-22T01:09:29.550Z,6.82
2019-03-22T01:10:29.713Z,6.82
2019-03-22T01:11:29.889Z,6.81
2019-03-22T01:12:30.063Z,6.64
2019-03-22T01:13:30.234Z,6.69
2019-03-22T01:14:30.414Z,6.56
2019-03-22T01:15:30.576Z,6.52
2019-03-22T01:16:30.752Z,6.62
2019-03-22T01:17:30.927Z,6.56
2019-03-22T01:18:31.094Z,6.63
2019-03-22T01:19:31.268Z,6.69
2019-03-22T01:20:31.441Z,6.77
2019-03-22T01:21:31.603Z,6.66
2019-03-22T01:22:31.777Z,6.63
2019-03-22T01:23:31.950Z,6.62
2019-03-22T01:24:32.124Z,6.62
2019-03-22T01:25:32.288Z,6.63
2019-03-22T01:26:32.483Z,6.59
2019-03-22T01:27:40.470Z,6.59
2019-03-22T01:28:32.785Z,6.51
2019-03-22T01:29:32.960Z,6.48
2019-03-22T01:30:33.131Z,6.36
2019-03-22T01:31:33.306Z,6.28
2019-03-22T01:32:33.490Z,6.02
2019-03-22T01:33:33.662Z,5.89
2019-03-22T01:34:33.830Z,5.73
2019-03-22T01:35:34.002Z,5.83
2019-03-22T01:36:34.175Z,5.82
2019-03-22T01:37:34.345Z,5.75
2019-03-22T01:38:34.520Z,5.76
2019-03-22T01:39:34.690Z,5.72
2019-03-22T01:40:34.872Z,5.80
2019-03-22T01:41:35.048Z,5.82
2019-03-22T01:42:35.211Z,5.94
2019-03-22T01:43:35.382Z,5.86
2019-03-22T01:44:35.558Z,5.87
2019-03-22T01:45:35.741Z,5.90
2019-03-22T01:46:35.902Z,5.93
2019-03-22T01:47:36.075Z,5.93
2019-03-22T01:48:36.249Z,5.94
2019-03-22T01:49:36.424Z,5.93
2019-03-22T01:50:36.593Z,5.89
2019-03-22T01:51:36.772Z,5.91
2019-03-22T01:52:36.938Z,5.99
2019-03-22T01:53:37.117Z,6.02
2019-03-22T01:55:37.446Z,6.07
2019-03-22T01:56:37.619Z,6.02
2019-03-22T01:57:37.794Z,6.16
2019-03-22T01:58:37.985Z,6.16
2019-03-22T01:59:38.146Z,6.16
2019-03-22T02:00:38.318Z,6.16
2019-03-22T02:01:38.491Z,6.14
2019-03-22T02:02:38.662Z,6.17
2019-03-22T02:03:38.835Z,6.24
2019-03-22T02:04:39.005Z,6.27
2019-03-22T02:05:39.176Z,6.20
2019-03-22T02:06:39.356Z,6.22
2019-03-22T02:07:39.517Z,6.19
2019-03-22T02:08:39.685Z,6.27
2019-03-22T02:09:39.861Z,6.19
2019-03-22T02:10:40.031Z,6.19
2019-03-22T02:11:40.194Z,6.27
2019-03-22T02:12:40.359Z,6.28
2019-03-22T02:13:40.528Z,6.12
2019-03-22T02:14:40.698Z,6.24
2019-03-22T02:15:40.869Z,6.17
2019-03-22T02:16:41.041Z,6.09
2019-03-22T02:17:41.216Z,6.20
2019-03-22T02:18:41.387Z,6.19
2019-03-22T02:19:41.563Z,6.12
2019-03-22T02:20:41.737Z,6.27
2019-03-22T02:21:41.911Z,6.31
2019-03-22T02:22:42.081Z,6.27
2019-03-22T02:23:42.251Z,6.27
2019-03-22T02:24:42.431Z,6.28
2019-03-22T02:25:42.594Z,6.27
2019-03-22T02:26:42.766Z,6.24
2019-03-22T02:27:42.958Z,6.24
2019-03-22T02:28:43.124Z,6.30
2019-03-22T02:29:44.452Z,6.24
2019-03-22T02:30:43.465Z,6.36
2019-03-22T02:31:43.643Z,6.17
2019-03-22T02:32:43.810Z,6.16
2019-03-22T02:33:43.969Z,6.22
2019-03-22T02:34:44.135Z,6.24
2019-03-22T02:35:44.309Z,6.22
2019-03-22T02:36:44.480Z,6.05
2019-03-22T02:37:44.657Z,6.07
2019-03-22T02:38:44.834Z,6.07
2019-03-22T02:39:45.116Z,5.98
2019-03-22T02:40:45.178Z,6.01
2019-03-22T02:41:45.351Z,6.02
2019-03-22T02:42:45.518Z,6.11
2019-03-22T02:43:45.688Z,6.04
2019-03-22T02:44:45.880Z,6.02
2019-03-22T02:45:46.027Z,6.19
2019-03-22T02:46:46.217Z,6.04
2019-03-22T02:47:46.374Z,6.07
2019-03-22T02:48:46.546Z,6.07
2019-03-22T02:49:46.729Z,6.07
2019-03-22T02:50:46.893Z,6.08
2019-03-22T02:51:47.066Z,6.05
2019-03-22T02:52:47.241Z,6.01
2019-03-22T02:53:47.413Z,5.91
2019-03-22T02:54:47.580Z,6.11
2019-03-22T02:55:47.888Z,6.02
2019-03-22T02:56:47.926Z,6.04
2019-03-22T02:57:48.131Z,6.05
2019-03-22T02:58:48.263Z,6.11
2019-03-22T02:59:48.443Z,6.14
2019-03-22T03:00:48.613Z,6.02
2019-03-22T03:01:48.777Z,5.94
2019-03-22T03:02:48.956Z,5.89
2019-03-22T03:03:49.125Z,5.97
2019-03-22T03:04:49.302Z,5.89
2019-03-22T03:05:49.462Z,5.90
2019-03-22T03:06:49.639Z,5.89
2019-03-22T03:07:49.888Z,5.99
2019-03-22T03:08:49.979Z,5.89
2019-03-22T03:09:50.149Z,5.89
2019-03-22T03:10:50.331Z,5.91
2019-03-22T03:11:50.489Z,6.04
2019-03-22T03:12:50.673Z,5.91
2019-03-22T03:13:50.832Z,5.87
2019-03-22T03:14:51.012Z,5.87
2019-03-22T03:15:51.175Z,5.90
2019-03-22T03:16:51.351Z,5.90
2019-03-22T03:17:51.520Z,5.93
2019-03-22T03:18:51.695Z,6.02
2019-03-22T03:19:51.871Z,5.90
2019-03-22T03:20:52.042Z,5.90
2019-03-22T03:21:52.212Z,5.93
2019-03-22T03:22:52.383Z,5.91
2019-03-22T03:23:52.553Z,5.75
2019-03-22T03:24:52.728Z,5.76
2019-03-22T03:25:52.903Z,5.76
2019-03-22T03:26:53.068Z,5.87
2019-03-22T03:27:53.240Z,5.93
2019-03-22T03:28:53.411Z,5.87
2019-03-22T03:29:53.587Z,5.82
2019-03-22T03:30:53.776Z,5.83
2019-03-22T03:31:53.987Z,5.82
2019-03-22T03:32:54.118Z,5.75
2019-03-22T03:33:54.285Z,5.76
2019-03-22T03:34:54.468Z,5.68
2019-03-22T03:35:54.616Z,5.61
2019-03-22T03:36:54.807Z,5.65
2019-03-22T03:37:54.965Z,5.61
2019-03-22T03:38:55.142Z,5.62
2019-03-22T03:39:55.316Z,5.61
2019-03-22T03:40:55.489Z,5.54
2019-03-22T03:41:55.661Z,5.54
2019-03-22T03:42:55.829Z,5.39
2019-03-22T03:43:56.008Z,5.36
2019-03-22T03:44:56.177Z,5.36
2019-03-22T03:45:56.344Z,5.44
2019-03-22T03:46:56.526Z,5.39
2019-03-22T03:47:56.691Z,5.44
2019-03-22T03:48:56.871Z,5.43
2019-03-22T03:49:57.033Z,5.44
2019-03-22T03:50:57.205Z,5.38
2019-03-22T03:51:57.372Z,5.48
2019-03-22T03:52:57.546Z,5.44
2019-03-22T03:53:57.718Z,5.43
2019-03-22T03:54:57.890Z,5.46
2019-03-22T03:55:58.062Z,5.47
2019-03-22T03:56:58.231Z,5.53
2019-03-22T03:57:58.406Z,5.41
2019-03-22T03:58:58.572Z,5.39
2019-03-22T03:59:58.747Z,5.46
2019-03-22T04:00:58.924Z,5.32
2019-03-22T04:01:59.089Z,5.41
2019-03-22T04:02:59.270Z,5.39
2019-03-22T04:03:59.436Z,5.43
2019-03-22T04:04:59.605Z,5.41
2019-03-22T04:05:59.782Z,5.20
2019-03-22T04:06:59.955Z,4.90
2019-03-22T04:08:00.125Z,4.86
2019-03-22T04:09:00.297Z,4.89
2019-03-22T04:10:00.646Z,4.90
2019-03-22T04:11:00.641Z,4.89
2019-03-22T04:12:00.812Z,4.87
2019-03-22T04:13:00.992Z,4.86
2019-03-22T04:14:01.156Z,4.90
2019-03-22T04:15:01.332Z,4.93
2019-03-22T04:16:01.498Z,4.94
2019-03-22T04:17:01.668Z,5.08
2019-03-22T04:18:01.846Z,5.07
2019-03-22T04:19:02.010Z,5.11
2019-03-22T04:20:02.179Z,5.11
2019-03-22T04:21:02.353Z,5.20
2019-03-22T04:22:02.521Z,5.20
2019-03-22T04:23:02.695Z,5.28
2019-03-22T04:24:02.860Z,5.26
2019-03-22T04:25:03.041Z,5.28
2019-03-22T04:26:03.207Z,5.25
2019-03-22T04:27:03.373Z,5.28
2019-03-22T04:28:03.566Z,5.17
2019-03-22T04:29:07.637Z,5.08
2019-03-22T04:30:03.889Z,5.05
2019-03-22T04:31:04.052Z,5.02
2019-03-22T04:32:04.221Z,4.93
2019-03-22T04:33:06.521Z,4.89
2019-03-22T04:34:04.566Z,4.92
2019-03-22T04:35:04.741Z,4.87
2019-03-22T04:36:04.910Z,4.92
2019-03-22T04:37:05.081Z,4.84
2019-03-22T04:38:05.251Z,4.86
2019-03-22T04:39:05.425Z,4.86
2019-03-22T04:40:05.599Z,4.93
2019-03-22T04:41:05.760Z,4.87
2019-03-22T04:42:05.942Z,4.89
2019-03-22T04:43:06.112Z,4.93
2019-03-22T04:44:06.279Z,4.92
2019-03-22T04:45:06.461Z,4.94
2019-03-22T04:46:06.625Z,4.89
2019-03-22T04:47:06.811Z,4.99
2019-03-22T04:48:06.967Z,5.10
2019-03-22T04:49:07.140Z,5.14
2019-03-22T04:50:07.310Z,5.08
2019-03-22T04:51:07.478Z,5.04
2019-03-22T04:52:07.650Z,5.12
2019-03-22T04:53:07.818Z,4.99
2019-03-22T04:54:07.988Z,4.94
2019-03-22T04:55:08.161Z,4.97
2019-03-22T04:56:08.338Z,5.00
2019-03-22T04:57:08.510Z,5.07
2019-03-22T04:58:08.682Z,4.94
2019-03-22T04:59:18.351Z,5.07
2019-03-22T05:00:09.026Z,5.07
2019-03-22T05:01:09.196Z,5.02
2019-03-22T05:02:09.367Z,5.02
2019-03-22T05:03:09.543Z,4.92
2019-03-22T05:04:09.715Z,4.93
2019-03-22T05:05:09.884Z,4.87
2019-03-22T05:06:10.056Z,4.92
2019-03-22T05:07:10.228Z,4.90
2019-03-22T05:08:10.401Z,4.84
2019-03-22T05:09:10.573Z,4.84
2019-03-22T05:10:10.739Z,4.89
2019-03-22T05:11:10.941Z,4.78
2019-03-22T05:12:11.082Z,4.90
2019-03-22T05:13:11.259Z,4.90
2019-03-22T05:14:11.432Z,4.93
2019-03-22T05:15:11.602Z,4.94
2019-03-22T05:16:11.772Z,4.93
2019-03-22T05:17:11.944Z,4.90
2019-03-22T05:18:12.116Z,4.80
2019-03-22T05:19:12.284Z,4.74
2019-03-22T05:20:12.467Z,4.74
2019-03-22T05:21:12.632Z,4.84
2019-03-22T05:22:12.799Z,4.86
2019-03-22T05:23:12.972Z,4.82
2019-03-22T05:24:13.144Z,4.86
2019-03-22T05:25:13.318Z,4.71
2019-03-22T05:26:13.503Z,4.86
2019-03-22T05:27:13.653Z,4.70
2019-03-22T05:28:13.826Z,4.73
2019-03-22T05:29:14.032Z,4.74
2019-03-22T05:30:14.295Z,4.75
2019-03-22T05:31:14.439Z,4.70
2019-03-22T05:32:14.612Z,4.74
2019-03-22T05:33:14.781Z,4.71
2019-03-22T05:34:14.951Z,4.73
2019-03-22T05:35:15.131Z,4.58
2019-03-22T05:36:15.293Z,4.74
2019-03-22T05:37:15.467Z,4.67
2019-03-22T05:38:15.645Z,4.77
2019-03-22T05:39:15.797Z,4.70
2019-03-22T05:40:15.968Z,4.77
2019-03-22T05:41:16.151Z,4.66
2019-03-22T05:42:16.308Z,4.66
2019-03-22T05:43:16.488Z,4.73
2019-03-22T05:44:16.644Z,4.82
2019-03-22T05:45:16.822Z,4.82
2019-03-22T05:46:16.985Z,4.89
2019-03-22T05:47:17.158Z,4.87
2019-03-22T05:48:17.343Z,4.99
2019-03-22T05:49:17.496Z,5.04
2019-03-22T05:50:17.668Z,5.11
2019-03-22T05:51:17.850Z,5.18
2019-03-22T05:52:18.010Z,5.20
2019-03-22T05:53:18.180Z,5.15
2019-03-22T05:54:18.351Z,5.18
2019-03-22T05:55:18.529Z,5.17
2019-03-22T05:56:18.695Z,5.17
2019-03-22T05:57:18.867Z,5.18
2019-03-22T05:58:19.042Z,5.18
2019-03-22T05:59:19.211Z,5.17
2019-03-22T06:00:19.383Z,5.18
2019-03-22T06:01:19.553Z,5.30
2019-03-22T06:02:19.726Z,5.28
2019-03-22T06:04:20.071Z,5.43
2019-03-22T06:05:20.236Z,5.41
2019-03-22T06:06:20.419Z,5.50
2019-03-22T06:07:20.582Z,5.51
2019-03-22T06:08:20.753Z,5.61
2019-03-22T06:09:20.930Z,5.75
2019-03-22T06:10:28.722Z,5.59
2019-03-22T06:11:28.888Z,5.68
2019-03-22T06:12:21.430Z,5.68
2019-03-22T06:13:21.710Z,5.72
2019-03-22T06:14:21.764Z,5.73
2019-03-22T06:15:22.525Z,5.79
2019-03-22T06:16:22.098Z,5.71
2019-03-22T06:17:22.270Z,5.84
2019-03-22T06:18:22.461Z,5.79
2019-03-22T06:19:22.624Z,5.83
2019-03-22T06:20:22.791Z,5.76
2019-03-22T06:21:22.961Z,5.80
2019-03-22T06:22:23.134Z,5.86
2019-03-22T06:23:23.310Z,5.79
2019-03-22T06:24:23.489Z,5.86
2019-03-22T06:25:23.662Z,5.97
2019-03-22T06:26:23.828Z,5.97
2019-03-22T06:27:24.002Z,6.07
2019-03-22T06:28:24.179Z,6.07
2019-03-22T06:29:24.353Z,6.16
2019-03-22T06:30:24.525Z,6.24
2019-03-22T06:31:24.699Z,6.24
2019-03-22T06:32:24.882Z,6.31
2019-03-22T06:33:25.056Z,6.51
2019-03-22T06:34:25.219Z,6.44
2019-03-22T06:35:25.397Z,6.67
2019-03-22T06:36:25.569Z,6.59
2019-03-22T06:37:25.757Z,6.57
2019-03-22T06:38:25.923Z,6.57
2019-03-22T06:39:26.090Z,6.66
2019-03-22T06:40:26.261Z,6.75
2019-03-22T06:41:26.431Z,6.82
2019-03-22T06:42:26.606Z,6.96
2019-03-22T06:43:26.808Z,6.92
2019-03-22T06:44:28.184Z,6.96
2019-03-22T06:45:27.192Z,6.99
2019-03-22T06:46:27.379Z,6.93
2019-03-22T06:47:27.552Z,6.99
2019-03-22T06:48:27.715Z,7.07
2019-03-22T06:49:27.890Z,7.06
2019-03-22T06:50:28.087Z,7.28
2019-03-22T06:51:28.275Z,7.38
2019-03-22T06:52:28.437Z,7.40
2019-03-22T06:53:28.611Z,7.50
2019-03-22T06:54:31.914Z,7.56
2019-03-22T06:55:28.957Z,7.43
2019-03-22T06:56:29.145Z,7.40
2019-03-22T06:57:29.370Z,7.38
2019-03-22T06:58:29.513Z,7.53
2019-03-22T06:59:29.692Z,7.63
2019-03-22T07:00:29.869Z,7.83
2019-03-22T07:01:30.045Z,7.73
2019-03-22T07:02:30.222Z,7.75
2019-03-22T07:03:30.449Z,7.90
2019-03-22T07:04:30.571Z,7.83
2019-03-22T07:05:30.744Z,8.00
2019-03-22T07:06:30.921Z,7.98
2019-03-22T07:07:31.106Z,8.41
2019-03-22T07:08:31.274Z,8.46
2019-03-22T07:09:31.449Z,8.49
2019-03-22T07:10:31.625Z,8.52
2019-03-22T07:11:31.807Z,8.64
2019-03-22T07:12:31.982Z,8.69
2019-03-22T07:13:32.161Z,8.97
2019-03-22T07:14:32.362Z,9.23
2019-03-22T07:15:32.534Z,9.48
2019-03-22T07:16:32.711Z,9.83
2019-03-22T07:17:32.900Z,9.89
2019-03-22T07:18:33.068Z,10.31
2019-03-22T07:19:33.246Z,10.53
2019-03-22T07:20:33.433Z,10.41
2019-03-22T07:21:33.602Z,10.72
2019-03-22T07:22:33.783Z,10.84
2019-03-22T07:23:33.963Z,10.99
2019-03-22T07:24:34.148Z,11.12
2019-03-22T07:25:34.312Z,11.22
2019-03-22T07:26:34.495Z,11.22
2019-03-22T07:27:34.676Z,11.47
2019-03-22T07:28:34.856Z,11.37
2019-03-22T07:29:35.037Z,11.60
2019-03-22T07:30:35.210Z,11.57
2019-03-22T07:31:35.935Z,11.66
2019-03-22T07:32:35.567Z,11.60
2019-03-22T07:33:35.740Z,11.81
2019-03-22T07:34:35.930Z,12.02
2019-03-22T07:35:36.114Z,11.87
2019-03-22T07:36:36.279Z,11.37
2019-03-22T07:37:36.447Z,11.47
2019-03-22T07:38:36.638Z,11.75
2019-03-22T07:39:36.812Z,11.59
2019-03-22T07:41:37.175Z,11.72
2019-03-22T07:42:37.348Z,12.25
2019-03-22T07:43:37.529Z,12.25
2019-03-22T07:44:37.710Z,12.49
2019-03-22T07:45:37.896Z,12.82
2019-03-22T07:49:10.370Z,13.13
2019-03-22T07:50:10.529Z,13.16
2019-03-22T07:51:10.725Z,13.19
2019-03-22T07:52:10.886Z,12.86
2019-03-22T07:53:11.074Z,13.01
2019-03-22T07:54:11.244Z,13.16
2019-03-22T07:55:11.428Z,13.16
2019-03-22T07:56:11.607Z,13.18
2019-03-22T07:57:11.793Z,13.01
2019-03-22T07:58:11.969Z,12.94
2019-03-22T07:59:12.145Z,12.80
2019-03-22T08:00:12.346Z,13.04
2019-03-22T08:01:12.510Z,13.00
2019-03-22T08:02:12.712Z,13.03
2019-03-22T08:03:12.880Z,12.97
2019-03-22T08:04:13.058Z,13.04
2019-03-22T08:05:13.243Z,12.79
2019-03-22T08:06:13.419Z,12.73
2019-03-22T08:07:13.603Z,12.85
2019-03-22T08:08:13.784Z,13.23
2019-03-22T08:09:13.988Z,13.16
2019-03-22T08:10:14.163Z,13.01
2019-03-22T08:11:14.368Z,12.95
2019-03-22T08:12:14.505Z,13.19
2019-03-22T08:13:14.705Z,13.49
2019-03-22T08:14:16.476Z,13.71
2019-03-22T08:15:15.061Z,13.74
2019-03-22T08:16:15.264Z,13.62
2019-03-22T08:17:15.420Z,13.74
2019-03-22T08:18:15.596Z,13.89
2019-03-22T08:19:15.791Z,14.30
2019-03-22T08:20:15.973Z,14.35
2019-03-22T08:21:16.143Z,14.35
2019-03-22T08:22:16.359Z,14.45
2019-03-22T08:23:16.509Z,14.54
2019-03-22T08:24:16.678Z,14.59
2019-03-22T08:25:16.869Z,14.66
2019-03-22T08:26:17.042Z,14.37
2019-03-22T08:27:17.233Z,14.79
2019-03-22T08:28:17.439Z,15.06
2019-03-22T08:29:17.628Z,14.82
2019-03-22T08:30:17.798Z,14.69
2019-03-22T08:31:17.959Z,14.63
2019-03-22T08:32:18.956Z,15.02
2019-03-22T08:33:18.351Z,15.43
2019-03-22T08:34:18.527Z,15.47
2019-03-22T08:35:18.728Z,15.70
2019-03-22T08:36:18.898Z,15.18
2019-03-22T08:37:19.096Z,15.44
2019-03-22T08:38:19.282Z,15.67
2019-03-22T08:39:19.466Z,15.88
2019-03-22T08:40:19.628Z,16.24
2019-03-22T08:41:19.828Z,16.00
2019-03-22T08:42:20.034Z,16.42
2019-03-22T08:43:20.167Z,16.38
2019-03-22T08:44:20.469Z,16.60
2019-03-22T08:45:20.536Z,17.05
2019-03-22T08:46:20.738Z,16.54
2019-03-22T08:47:32.802Z,16.46
2019-03-22T08:48:21.115Z,16.53
2019-03-22T08:49:21.346Z,16.66
2019-03-22T08:50:21.483Z,16.32
2019-03-22T08:51:21.640Z,16.81
2019-03-22T08:52:21.836Z,17.36
2019-03-22T08:53:22.007Z,17.98
2019-03-22T08:54:22.174Z,18.41
2019-03-22T08:55:22.366Z,18.22
2019-03-22T08:56:22.576Z,18.34
2019-03-22T08:57:24.942Z,18.34
2019-03-22T08:58:23.870Z,18.60
2019-03-22T08:59:23.121Z,18.77
2019-03-22T09:00:23.262Z,18.73
2019-03-22T09:01:23.443Z,18.78
2019-03-22T09:02:23.654Z,18.80
2019-03-22T09:03:23.872Z,18.75
2019-03-22T09:04:24.050Z,17.98
2019-03-22T09:05:24.274Z,18.07
2019-03-22T09:06:24.365Z,17.11
2019-03-22T09:07:24.830Z,16.83
2019-03-22T09:08:25.505Z,15.52
2019-03-22T09:09:24.880Z,15.77
2019-03-22T09:10:25.105Z,15.68
2019-03-22T09:11:25.247Z,16.39
2019-03-22T09:12:26.934Z,16.47
2019-03-22T09:13:25.636Z,16.08
2019-03-22T09:14:25.858Z,16.26
2019-03-22T09:15:26.045Z,16.89
2019-03-22T09:16:26.125Z,17.29
2019-03-22T09:17:26.314Z,17.26
2019-03-22T09:18:26.489Z,18.04
2019-03-22T09:19:26.691Z,18.34
2019-03-22T09:20:26.858Z,18.92
2019-03-22T09:21:27.040Z,19.27
2019-03-22T09:22:27.213Z,19.48
2019-03-22T09:23:27.401Z,19.99
2019-03-22T09:24:38.606Z,20.04
2019-03-22T09:25:27.806Z,20.09
2019-03-22T09:26:27.954Z,20.21
2019-03-22T09:27:28.120Z,20.13
2019-03-22T09:28:28.352Z,19.94
2019-03-22T09:29:28.504Z,19.67
2019-03-22T09:30:28.705Z,19.77
2019-03-22T09:31:28.836Z,19.92
2019-03-22T09:32:29.040Z,18.95
2019-03-22T09:33:29.192Z,19.24
2019-03-22T09:34:34.023Z,18.89
2019-03-22T09:35:29.576Z,18.93
2019-03-22T09:36:29.743Z,19.37
2019-03-22T09:37:29.894Z,19.31
2019-03-22T09:38:30.141Z,19.19
2019-03-22T09:39:30.283Z,18.66
2019-03-22T09:40:30.443Z,18.50
2019-03-22T09:41:30.645Z,18.78
2019-03-22T09:42:30.811Z,17.97
2019-03-22T09:43:31.012Z,18.20
2019-03-22T09:44:42.866Z,18.01
2019-03-22T09:45:31.455Z,18.60
2019-03-22T09:46:31.588Z,19.22
2019-03-22T09:47:31.712Z,19.69
2019-03-22T09:48:31.960Z,19.64
2019-03-22T09:49:32.058Z,19.48
2019-03-22T09:50:32.339Z,19.91
2019-03-22T09:51:32.464Z,20.31
2019-03-22T09:52:33.816Z,20.65
2019-03-22T09:53:32.824Z,20.55
2019-03-22T09:54:33.002Z,20.93
2019-03-22T09:55:33.185Z,21.15
2019-03-22T09:56:46.085Z,20.93
2019-03-22T09:57:33.626Z,21.18
2019-03-22T09:58:33.724Z,20.70
2019-03-22T09:59:33.939Z,21.06
2019-03-22T10:00:34.094Z,21.36
2019-03-22T10:01:34.284Z,21.57
2019-03-22T10:02:34.466Z,22.18
2019-03-22T10:03:34.680Z,21.80
2019-03-22T10:04:34.838Z,21.88
2019-03-22T10:05:35.060Z,21.72
2019-03-22T10:06:35.214Z,21.55
2019-03-22T10:07:35.391Z,21.67
2019-03-22T10:08:35.586Z,21.51
2019-03-22T10:09:35.789Z,21.57
2019-03-22T10:10:36.002Z,21.62
2019-03-22T10:11:36.106Z,21.80
2019-03-22T10:12:36.292Z,22.06
2019-03-22T10:13:36.455Z,22.28
2019-03-22T10:14:36.656Z,22.38
2019-03-22T10:15:36.823Z,22.62
2019-03-22T10:16:37.002Z,22.90
2019-03-22T10:17:37.252Z,22.99
2019-03-22T10:18:37.384Z,22.73
2019-03-22T10:19:37.803Z,23.00
2019-03-22T10:20:37.810Z,23.13
2019-03-22T10:21:38.008Z,23.66
2019-03-22T10:22:38.151Z,23.10
2019-03-22T10:23:38.371Z,23.00
2019-03-22T10:24:38.521Z,22.80
2019-03-22T10:25:38.694Z,23.08
2019-03-22T10:26:38.970Z,23.44
2019-03-22T10:27:54.119Z,23.74
2019-03-22T10:28:39.684Z,24.18
2019-03-22T10:29:39.860Z,23.59
2019-03-22T10:30:39.535Z,24.05
2019-03-22T10:31:39.747Z,24.01
2019-03-22T10:32:40.000Z,23.50
2019-03-22T10:33:40.298Z,23.69
2019-03-22T10:34:40.371Z,23.63
2019-03-22T10:35:47.015Z,23.69
2019-03-22T10:36:40.736Z,23.66
2019-03-22T10:37:41.078Z,23.65
2019-03-22T10:38:50.318Z,23.55
2019-03-22T10:39:41.482Z,23.55
2019-03-22T10:40:43.417Z,23.59
2019-03-22T10:41:43.599Z,24.08
2019-03-22T10:42:41.984Z,23.74
2019-03-22T10:43:41.917Z,23.65
2019-03-22T10:44:42.257Z,23.65
2019-03-22T10:45:42.340Z,22.88
2019-03-22T10:46:42.582Z,23.34
2019-03-22T10:47:42.684Z,23.46
2019-03-22T10:48:42.942Z,23.44
2019-03-22T10:49:43.216Z,23.76
2019-03-22T10:50:43.228Z,23.95
2019-03-22T10:51:56.079Z,24.17
2019-03-22T10:52:43.548Z,23.88
2019-03-22T10:53:43.754Z,24.14
2019-03-22T10:54:43.896Z,24.43
2019-03-22T10:55:44.098Z,24.57
2019-03-22T10:56:44.278Z,25.04
2019-03-22T10:57:44.480Z,25.03
2019-03-22T10:58:44.658Z,24.69
2019-03-22T10:59:44.856Z,23.84
2019-03-22T11:00:44.998Z,23.09
2019-03-22T11:01:52.325Z,23.56
2019-03-22T11:02:45.368Z,23.51
2019-03-22T11:03:46.797Z,23.91
2019-03-22T11:04:45.838Z,23.80
2019-03-22T11:05:47.523Z,23.13
2019-03-22T11:06:48.602Z,23.25
2019-03-22T11:07:47.386Z,23.10
2019-03-22T11:08:50.281Z,22.45
2019-03-22T11:09:46.950Z,23.17
2019-03-22T11:10:47.075Z,23.73
2019-03-22T11:11:47.244Z,23.80
2019-03-22T11:12:47.495Z,24.18
2019-03-22T11:13:47.718Z,24.65
2019-03-22T11:15:09.434Z,24.80
2019-03-22T11:15:53.278Z,24.74
2019-03-22T11:16:49.263Z,24.47
2019-03-22T11:17:54.407Z,24.45
2019-03-22T11:19:05.247Z,24.65
2019-03-22T11:19:50.042Z,24.69
2019-03-22T11:20:49.223Z,24.74
2019-03-22T11:21:53.832Z,25.04
2019-03-22T11:22:50.193Z,25.14
2019-03-22T11:23:51.076Z,25.08
2019-03-22T11:24:51.075Z,25.26
2019-03-22T11:25:50.887Z,25.31
2019-03-22T11:26:51.724Z,25.17
2019-03-22T11:27:52.039Z,24.61
2019-03-22T11:28:51.922Z,24.68
2019-03-22T11:29:51.285Z,24.74
2019-03-22T11:33:25.321Z,24.66
2019-03-22T11:34:28.819Z,24.45
2019-03-22T11:35:26.740Z,24.17
2019-03-22T11:36:33.036Z,24.02
2019-03-22T11:37:27.541Z,23.76
2019-03-22T11:38:41.895Z,23.54
2019-03-22T11:39:26.940Z,23.56
2019-03-22T11:40:30.092Z,22.87
2019-03-22T11:41:47.920Z,23.09
2019-03-22T11:42:28.906Z,23.21
2019-03-22T11:45:19.891Z,22.90
2019-03-22T11:46:19.870Z,22.78
2019-03-22T11:47:20.974Z,22.96
2019-03-22T11:48:22.740Z,22.94
2019-03-22T11:49:23.757Z,22.68
2019-03-22T11:50:20.727Z,22.69
2019-03-22T11:51:24.107Z,22.72
2019-03-22T11:52:22.239Z,22.72
2019-03-22T11:53:21.377Z,22.72
2019-03-22T11:54:24.923Z,22.91
2019-03-22T11:55:21.667Z,23.12
2019-03-22T11:56:21.821Z,23.00
2019-03-22T11:57:22.061Z,23.03
2019-03-22T11:59:22.396Z,22.25
2019-03-22T12:00:22.548Z,22.22
2019-03-22T12:01:22.920Z,21.96
2019-03-22T12:02:22.933Z,22.15
2019-03-22T12:03:23.084Z,22.41
2019-03-22T12:04:23.260Z,22.55
2019-03-22T12:05:23.456Z,22.54
2019-03-22T12:06:23.605Z,22.60
2019-03-22T12:07:23.870Z,22.57
2019-03-22T12:08:25.505Z,22.39
2019-03-22T12:09:24.122Z,22.23
2019-03-22T12:10:24.288Z,22.04
2019-03-22T12:11:24.481Z,21.79
2019-03-22T12:12:25.810Z,21.88
2019-03-22T12:13:25.345Z,21.73
2019-03-22T12:14:25.110Z,21.82
2019-03-22T12:15:26.507Z,21.76
2019-03-22T12:16:25.661Z,21.82
2019-03-22T12:17:25.693Z,21.67
2019-03-22T12:18:25.918Z,21.70
2019-03-22T12:19:26.067Z,21.98
2019-03-22T12:20:26.259Z,21.92
2019-03-22T12:21:26.462Z,21.76
2019-03-22T12:22:26.662Z,21.62
2019-03-22T12:23:26.991Z,21.80
2019-03-22T12:24:27.066Z,21.64
2019-03-22T12:25:27.373Z,21.83
2019-03-22T12:26:27.515Z,21.91
2019-03-22T12:27:36.436Z,21.88
2019-03-22T12:28:28.096Z,21.96
2019-03-22T12:29:28.049Z,22.11
2019-03-22T12:30:28.242Z,22.22
2019-03-22T12:31:28.421Z,22.00
2019-03-22T12:32:32.411Z,21.89
2019-03-22T12:33:28.940Z,21.92
2019-03-22T12:34:29.099Z,21.93
2019-03-22T12:35:29.196Z,21.58
2019-03-22T12:36:29.442Z,21.54
2019-03-22T12:37:29.540Z,21.61
2019-03-22T12:38:29.790Z,21.85
2019-03-22T12:39:30.031Z,21.83
2019-03-22T12:40:30.194Z,21.54
2019-03-22T12:41:30.327Z,21.70
2019-03-22T12:42:30.508Z,21.79
2019-03-22T12:43:31.193Z,21.85
2019-03-22T12:44:31.206Z,21.61
2019-03-22T12:45:33.087Z,21.77
2019-03-22T12:46:33.037Z,21.79
2019-03-22T12:47:31.400Z,21.66
2019-03-22T12:48:31.731Z,21.52
2019-03-22T12:49:36.284Z,21.77
2019-03-22T12:50:32.016Z,21.89
2019-03-22T12:51:32.174Z,21.70
2019-03-22T12:52:32.438Z,21.83
2019-03-22T12:53:32.466Z,21.95
2019-03-22T12:54:32.625Z,21.82
2019-03-22T12:55:32.765Z,22.07
2019-03-22T12:56:32.940Z,22.14
2019-03-22T12:57:33.191Z,22.32
2019-03-22T12:58:33.443Z,22.35
2019-03-22T12:59:35.750Z,22.41
2019-03-22T13:00:34.806Z,22.55
2019-03-22T13:01:34.472Z,22.30
2019-03-22T13:02:42.059Z,21.91
2019-03-22T13:03:34.999Z,21.83
2019-03-22T13:04:34.696Z,21.50
2019-03-22T13:05:35.000Z,20.95
2019-03-22T13:06:35.150Z,21.06
2019-03-22T13:07:35.352Z,21.05
2019-03-22T13:08:36.108Z,20.92
2019-03-22T13:09:35.680Z,21.02
2019-03-22T13:10:36.809Z,21.35
2019-03-22T13:11:38.340Z,21.33
2019-03-22T13:12:37.088Z,21.52
2019-03-22T13:13:39.504Z,21.64
2019-03-22T13:14:37.431Z,21.61
2019-03-22T13:15:37.264Z,21.60
2019-03-22T13:16:37.491Z,21.40
2019-03-22T13:17:37.163Z,21.30
2019-03-22T13:18:37.757Z,21.12
2019-03-22T13:19:40.234Z,21.12
2019-03-22T13:20:37.646Z,21.21